createdAt,value
2023-04-18T00:00:53.291Z,100446.69
2023-04-18T00:03:23.864Z,100446.69
2023-04-18T00:05:53.399Z,100442.25
2023-04-18T00:08:22.295Z,100439.94
2023-04-18T00:10:51.391Z,100440.41
2023-04-18T00:13:20.292Z,100435.31
2023-04-18T00:15:49.360Z,100432.53
2023-04-18T00:18:20.447Z,100439.28
2023-04-18T00:20:50.829Z,100443.59
2023-04-18T00:23:22.349Z,100435.34
2023-04-18T00:25:51.423Z,100442.06
2023-04-18T00:28:20.366Z,100425.84
2023-04-18T00:30:51.150Z,100429.19
2023-04-18T00:33:20.333Z,100432.41
2023-04-18T00:35:51.024Z,100433.75
2023-04-18T00:38:19.992Z,100434.50
2023-04-18T00:40:50.198Z,100432.34
2023-04-18T00:43:19.171Z,100430.53
2023-04-18T00:45:48.119Z,100439.28
2023-04-18T00:48:18.030Z,100443.88
2023-04-18T00:50:47.290Z,100445.13
2023-04-18T00:53:17.994Z,100432.25
2023-04-18T00:55:48.140Z,100437.50
2023-04-18T00:58:17.888Z,100446.38
2023-04-18T01:00:48.390Z,100442.06
2023-04-18T01:03:18.546Z,100440.56
2023-04-18T01:05:48.655Z,100444.84
2023-04-18T01:08:20.016Z,100446.53
2023-04-18T01:10:49.389Z,100451.13
2023-04-18T01:13:20.873Z,100451.41
2023-04-18T01:15:51.732Z,100441.78
2023-04-18T01:18:20.951Z,100440.88
2023-04-18T01:20:51.693Z,100446.69
2023-04-18T01:23:24.317Z,100443.31
2023-04-18T01:25:54.700Z,100437.19
2023-04-18T01:28:23.736Z,100441.94
2023-04-18T01:30:52.895Z,100431.06
2023-04-18T01:33:21.863Z,100434.75
2023-04-18T01:35:51.068Z,100437.50
2023-04-18T01:38:20.216Z,100437.50
2023-04-18T01:40:49.891Z,100429.84
2023-04-18T01:43:20.232Z,100434.16
2023-04-18T01:45:49.369Z,100436.75
2023-04-18T01:48:18.391Z,100432.59
2023-04-18T01:50:47.421Z,100432.13
2023-04-18T01:53:17.728Z,100434.13
2023-04-18T01:55:46.904Z,100432.31
2023-04-18T01:58:16.359Z,100430.16
2023-04-18T02:00:46.874Z,100434.00
2023-04-18T02:03:16.070Z,100432.91
2023-04-18T02:05:45.292Z,100430.16
2023-04-18T02:08:14.601Z,100430.44
2023-04-18T02:10:44.045Z,100441.50
2023-04-18T02:13:14.594Z,100433.22
2023-04-18T02:15:46.690Z,100436.84
2023-04-18T02:18:18.519Z,100435.63
2023-04-18T02:20:49.048Z,100437.78
2023-04-18T02:23:17.995Z,100431.38
2023-04-18T02:25:47.115Z,100427.41
2023-04-18T02:28:18.155Z,100438.44
2023-04-18T02:30:48.590Z,100435.38
2023-04-18T02:33:17.560Z,100430.47
2023-04-18T02:35:46.975Z,100430.47
2023-04-18T02:38:18.050Z,100434.00
2023-04-18T02:40:47.029Z,100430.75
2023-04-18T02:43:16.101Z,100432.31
2023-04-18T02:45:45.175Z,100432.13
2023-04-18T02:48:15.748Z,100437.81
2023-04-18T02:50:47.571Z,100431.53
2023-04-18T02:53:17.041Z,100427.84
2023-04-18T02:55:55.757Z,100426.44
2023-04-18T02:58:31.765Z,100424.63
2023-04-18T03:01:33.120Z,100424.44
2023-04-18T03:04:23.866Z,100423.69
2023-04-18T03:06:59.365Z,100424.91
2023-04-18T03:09:29.743Z,100410.69
2023-04-18T03:12:04.095Z,100417.41
2023-04-18T03:14:34.140Z,100420.63
2023-04-18T03:17:04.411Z,100422.63
2023-04-18T03:19:40.815Z,100423.22
2023-04-18T03:22:12.714Z,100422.75
2023-04-18T03:24:48.367Z,100420.06
2023-04-18T03:27:18.042Z,100417.91
2023-04-18T03:29:47.979Z,100421.72
2023-04-18T03:32:18.565Z,100416.25
2023-04-18T03:34:49.062Z,100416.22
2023-04-18T03:37:18.403Z,100416.97
2023-04-18T03:39:52.524Z,100416.06
2023-04-18T03:42:22.533Z,100419.41
2023-04-18T03:44:51.623Z,100411.75
2023-04-18T03:47:20.714Z,100415.41
2023-04-18T03:49:57.047Z,100418.72
2023-04-18T03:52:29.708Z,100424.19
2023-04-18T03:54:59.349Z,100416.31
2023-04-18T03:57:33.584Z,100423.75
2023-04-18T04:00:08.301Z,100423.84
2023-04-18T04:02:45.639Z,100426.09
2023-04-18T04:05:22.720Z,100425.22
2023-04-18T04:07:52.990Z,100426.03
2023-04-18T04:10:22.179Z,100425.91
2023-04-18T04:12:52.553Z,100435.22
2023-04-18T04:15:22.522Z,100424.06
2023-04-18T04:17:57.807Z,100429.00
2023-04-18T04:20:28.290Z,100431.53
2023-04-18T04:23:06.462Z,100430.94
2023-04-18T04:25:38.777Z,100428.69
2023-04-18T04:28:16.123Z,100429.50
2023-04-18T04:30:55.714Z,100442.34
2023-04-18T04:33:28.799Z,100444.69
2023-04-18T04:36:03.249Z,100442.16
2023-04-18T04:38:34.537Z,100440.34
2023-04-18T04:41:03.896Z,100442.56
2023-04-18T04:43:32.838Z,100436.50
2023-04-18T04:46:03.996Z,100439.31
2023-04-18T04:48:33.056Z,100445.00
2023-04-18T04:51:03.517Z,100432.22
2023-04-18T04:53:32.616Z,100441.25
2023-04-18T04:56:04.950Z,100437.44
2023-04-18T04:58:36.952Z,100442.59
2023-04-18T05:01:25.230Z,100444.88
2023-04-18T05:03:54.361Z,100438.28
2023-04-18T05:06:25.958Z,100437.69
2023-04-18T05:08:56.161Z,100439.97
2023-04-18T05:11:25.499Z,100438.56
2023-04-18T05:13:54.515Z,100442.94
2023-04-18T05:16:23.582Z,100440.34
2023-04-18T05:18:52.944Z,100445.19
2023-04-18T05:21:21.910Z,100441.53
2023-04-18T05:23:52.312Z,100442.28
2023-04-18T05:26:21.525Z,100445.44
2023-04-18T05:28:50.770Z,100453.16
2023-04-18T05:31:20.009Z,100447.34
2023-04-18T05:34:07.815Z,100445.50
2023-04-18T05:36:36.857Z,100455.88
2023-04-18T05:39:26.167Z,100459.56
2023-04-18T05:41:55.833Z,100445.63
2023-04-18T05:44:25.454Z,100454.50
2023-04-18T05:46:54.446Z,100461.69
2023-04-18T05:49:23.704Z,100458.09
2023-04-18T05:51:53.526Z,100461.69
2023-04-18T05:54:22.648Z,100467.47
2023-04-18T05:56:53.103Z,100460.66
2023-04-18T05:59:22.099Z,100459.16
2023-04-18T06:01:51.696Z,100460.22
2023-04-18T06:04:21.643Z,100464.47
2023-04-18T06:06:51.028Z,100462.56
2023-04-18T06:09:20.130Z,100466.59
2023-04-18T06:11:49.290Z,100468.28
2023-04-18T06:14:19.606Z,100457.00
2023-04-18T06:16:48.735Z,100461.38
2023-04-18T06:19:17.733Z,100461.97
2023-04-18T06:21:46.669Z,100452.50
2023-04-18T06:24:16.556Z,100457.16
2023-04-18T06:26:46.702Z,100460.44
2023-04-18T06:29:18.166Z,100458.22
2023-04-18T06:31:48.796Z,100459.34
2023-04-18T06:34:17.957Z,100460.97
2023-04-18T06:36:46.873Z,100461.34
2023-04-18T06:39:17.104Z,100458.19
2023-04-18T06:41:46.222Z,100449.59
2023-04-18T06:44:22.914Z,100456.69
2023-04-18T06:46:53.370Z,100443.84
2023-04-18T06:49:26.498Z,100455.09
2023-04-18T06:51:55.830Z,100450.69
2023-04-18T06:54:24.944Z,100451.81
2023-04-18T06:56:54.097Z,100452.44
2023-04-18T06:59:23.533Z,100449.97
2023-04-18T07:01:54.170Z,100447.19
2023-04-18T07:04:23.280Z,100451.50
2023-04-18T07:06:53.198Z,100451.88
2023-04-18T07:09:22.821Z,100449.16
2023-04-18T07:11:52.776Z,100446.78
2023-04-18T07:14:24.502Z,100453.94
2023-04-18T07:16:55.158Z,100446.72
2023-04-18T07:19:24.292Z,100446.84
2023-04-18T07:21:54.158Z,100446.94
2023-04-18T07:24:24.352Z,100444.31
2023-04-18T07:26:55.225Z,100442.09
2023-04-18T07:29:24.898Z,100443.13
2023-04-18T07:31:55.460Z,100436.50
2023-04-18T07:34:27.187Z,100445.41
2023-04-18T07:36:56.377Z,100451.78
2023-04-18T07:39:25.490Z,100454.06
2023-04-18T07:41:54.531Z,100441.28
2023-04-18T07:44:25.429Z,100447.91
2023-04-18T07:46:55.927Z,100433.88
2023-04-18T07:49:24.993Z,100443.25
2023-04-18T07:51:54.671Z,100442.34
2023-04-18T07:54:23.857Z,100441.53
2023-04-18T07:56:53.370Z,100441.63
2023-04-18T07:59:22.513Z,100427.94
2023-04-18T08:01:51.485Z,100435.66
2023-04-18T08:04:21.917Z,100429.19
2023-04-18T08:06:51.013Z,100433.72
2023-04-18T08:09:20.720Z,100429.44
2023-04-18T08:11:49.994Z,100434.25
2023-04-18T08:14:19.011Z,100431.22
2023-04-18T08:16:48.209Z,100439.94
2023-04-18T08:19:17.284Z,100437.91
2023-04-18T08:21:47.607Z,100432.94
2023-04-18T08:24:16.599Z,100428.72
2023-04-18T08:26:45.908Z,100430.50
2023-04-18T08:29:15.383Z,100426.00
2023-04-18T08:31:44.559Z,100422.88
2023-04-18T08:34:14.470Z,100439.31
2023-04-18T08:36:43.518Z,100425.47
2023-04-18T08:39:14.224Z,100435.41
2023-04-18T08:41:44.729Z,100424.88
2023-04-18T08:44:13.966Z,100427.22
2023-04-18T08:46:43.058Z,100423.97
2023-04-18T08:49:12.870Z,100417.13
2023-04-18T08:51:44.228Z,100418.44
2023-04-18T08:54:16.193Z,100409.81
2023-04-18T08:56:45.543Z,100415.31
2023-04-18T08:59:14.847Z,100416.63
2023-04-18T09:01:57.013Z,100409.16
2023-04-18T09:04:37.534Z,100413.16
2023-04-18T09:07:08.331Z,100412.25
2023-04-18T09:09:46.351Z,100416.38
2023-04-18T09:12:18.470Z,100411.66
2023-04-18T09:14:48.635Z,100412.97
2023-04-18T09:17:33.210Z,100409.31
2023-04-18T09:20:06.362Z,100404.53
2023-04-18T09:22:48.160Z,100406.06
2023-04-18T09:25:35.132Z,100409.47
2023-04-18T09:28:05.468Z,100405.06
2023-04-18T09:30:38.096Z,100412.91
2023-04-18T09:33:09.714Z,100410.13
2023-04-18T09:35:39.000Z,100409.09
2023-04-18T09:38:09.715Z,100402.72
2023-04-18T09:40:40.165Z,100400.78
2023-04-18T09:43:22.904Z,100404.03
2023-04-18T09:45:53.470Z,100406.44
2023-04-18T09:48:23.583Z,100401.25
2023-04-18T09:50:53.711Z,100402.53
2023-04-18T09:53:22.890Z,100402.59
2023-04-18T09:55:57.509Z,100406.31
2023-04-18T09:58:30.588Z,100412.38
2023-04-18T10:01:00.622Z,100401.69
2023-04-18T10:03:35.816Z,100414.34
2023-04-18T10:06:05.611Z,100417.03
2023-04-18T10:08:35.257Z,100419.34
2023-04-18T10:11:06.374Z,100410.97
2023-04-18T10:13:38.006Z,100419.97
2023-04-18T10:16:08.053Z,100404.19
2023-04-18T10:18:37.807Z,100416.59
2023-04-18T10:21:07.246Z,100411.56
2023-04-18T10:23:38.100Z,100415.09
2023-04-18T10:26:09.412Z,100413.50
2023-04-18T10:29:01.169Z,100409.63
2023-04-18T10:31:30.858Z,100413.63
2023-04-18T10:34:05.285Z,100413.75
2023-04-18T10:36:34.745Z,100418.63
2023-04-18T10:39:21.102Z,100420.13
2023-04-18T10:41:52.729Z,100424.66
2023-04-18T10:44:23.823Z,100419.34
2023-04-18T10:47:42.104Z,100426.31
2023-04-18T10:50:17.260Z,100427.28
2023-04-18T10:52:46.651Z,100419.59
2023-04-18T10:55:19.672Z,100426.75
2023-04-18T10:57:52.459Z,100422.19
2023-04-18T11:00:24.380Z,100416.00
2023-04-18T11:02:56.174Z,100424.09
2023-04-18T11:05:27.273Z,100416.56
2023-04-18T11:07:56.654Z,100408.47
2023-04-18T11:10:27.207Z,100418.31
2023-04-18T11:13:04.526Z,100415.53
2023-04-18T11:15:33.830Z,100425.72
2023-04-18T11:18:04.749Z,100420.34
2023-04-18T11:20:59.143Z,100410.97
2023-04-18T11:23:28.773Z,100414.22
2023-04-18T11:25:58.749Z,100410.06
2023-04-18T11:28:29.125Z,100404.72
2023-04-18T11:31:00.463Z,100413.06
2023-04-18T11:33:30.519Z,100411.69
2023-04-18T11:35:59.989Z,100410.31
2023-04-18T11:38:47.677Z,100410.13
2023-04-18T11:41:17.521Z,100411.84
2023-04-18T11:43:48.384Z,100414.06
2023-04-18T11:46:17.621Z,100404.09
2023-04-18T11:48:48.072Z,100410.69
2023-04-18T11:51:38.752Z,100404.50
2023-04-18T11:54:28.227Z,100399.22
2023-04-18T11:56:57.692Z,100396.28
2023-04-18T11:59:51.539Z,100394.00
2023-04-18T12:02:21.049Z,100397.75
2023-04-18T12:04:56.318Z,100412.66
2023-04-18T12:07:46.750Z,100413.03
2023-04-18T12:10:26.934Z,100399.47
2023-04-18T12:13:15.640Z,100404.19
2023-04-18T12:15:47.534Z,100404.06
2023-04-18T12:18:19.925Z,100400.09
2023-04-18T12:20:51.830Z,100393.44
2023-04-18T12:23:31.774Z,100389.69
2023-04-18T12:26:02.618Z,100390.34
2023-04-18T12:28:33.636Z,100386.03
2023-04-18T12:33:52.231Z,100389.72
2023-04-18T12:36:38.641Z,100385.97
2023-04-18T12:39:07.763Z,100377.22
2023-04-18T12:41:36.935Z,100384.59
2023-04-18T12:44:06.990Z,100388.34
2023-04-18T12:46:37.704Z,100388.81
2023-04-18T12:49:06.875Z,100385.16
2023-04-18T12:51:54.814Z,100382.75
2023-04-18T12:54:25.803Z,100383.03
2023-04-18T12:57:13.268Z,100385.00
2023-04-18T12:59:45.655Z,100378.47
2023-04-18T13:02:16.210Z,100378.75
2023-04-18T13:05:03.648Z,100384.66
2023-04-18T13:07:58.669Z,100377.16
2023-04-18T13:10:53.433Z,100381.56
2023-04-18T13:13:42.566Z,100375.34
2023-04-18T13:16:12.099Z,100375.63
2023-04-18T13:19:01.500Z,100379.84
2023-04-18T13:21:31.506Z,100385.94
2023-04-18T13:24:19.140Z,100382.00
2023-04-18T13:27:24.212Z,100377.84
2023-04-18T13:30:12.006Z,100392.50
2023-04-18T13:32:42.164Z,100373.44
2023-04-18T13:35:50.337Z,100370.19
2023-04-18T13:38:19.365Z,100366.91
2023-04-18T13:40:50.510Z,100363.25
2023-04-18T13:43:23.009Z,100372.63
2023-04-18T13:45:52.232Z,100376.97
2023-04-18T13:48:21.383Z,100368.47
2023-04-18T13:51:10.248Z,100370.03
2023-04-18T13:54:17.052Z,100368.63
2023-04-18T13:57:04.622Z,100370.00
2023-04-18T13:59:33.963Z,100367.81
2023-04-18T14:02:21.640Z,100365.91
2023-04-18T14:05:26.710Z,100368.78
2023-04-18T14:08:34.090Z,100368.63
2023-04-18T14:11:20.436Z,100369.50
2023-04-18T14:13:49.769Z,100366.41
2023-04-18T14:16:54.780Z,100373.91
2023-04-18T14:19:42.475Z,100367.97
2023-04-18T14:22:12.190Z,100372.56
2023-04-18T14:24:43.026Z,100371.69
2023-04-18T14:27:12.199Z,100380.63
2023-04-18T14:29:41.349Z,100367.09
2023-04-18T14:32:10.716Z,100369.97
2023-04-18T14:34:39.996Z,100363.09
2023-04-18T14:37:09.702Z,100367.53
2023-04-18T14:39:39.252Z,100373.19
2023-04-18T14:42:09.755Z,100375.50
2023-04-18T14:44:38.859Z,100378.53
2023-04-18T14:47:08.010Z,100371.69
2023-04-18T14:49:37.358Z,100377.13
2023-04-18T14:52:06.636Z,100378.94
2023-04-18T14:54:35.675Z,100379.97
2023-04-18T14:57:04.906Z,100385.78
2023-04-18T14:59:35.430Z,100381.78
2023-04-18T15:02:04.919Z,100383.66
2023-04-18T15:04:51.935Z,100378.84
2023-04-18T15:07:20.981Z,100379.03
2023-04-18T15:09:50.487Z,100378.88
2023-04-18T15:12:19.510Z,100378.75
2023-04-18T15:14:50.441Z,100385.13
2023-04-18T15:17:19.378Z,100385.22
2023-04-18T15:19:49.189Z,100386.28
2023-04-18T15:22:18.321Z,100383.47
2023-04-18T15:24:47.543Z,100385.94
2023-04-18T15:27:16.562Z,100386.47
2023-04-18T15:29:45.585Z,100387.09
2023-04-18T15:32:16.452Z,100388.19
2023-04-18T15:34:45.713Z,100393.00
2023-04-18T15:37:14.794Z,100391.03
2023-04-18T15:39:43.875Z,100391.66
2023-04-18T15:42:13.033Z,100394.66
2023-04-18T15:44:42.072Z,100392.59
2023-04-18T15:47:30.281Z,100393.41
2023-04-18T15:50:01.043Z,100389.91
2023-04-18T15:52:31.044Z,100397.88
2023-04-18T15:55:00.554Z,100387.69
2023-04-18T15:57:30.535Z,100392.13
2023-04-18T15:59:59.777Z,100393.97
2023-04-18T16:02:29.081Z,100401.03
2023-04-18T16:04:58.197Z,100407.31
2023-04-18T16:07:28.762Z,100406.34
2023-04-18T16:09:57.693Z,100404.47
2023-04-18T16:12:26.860Z,100406.06
2023-04-18T16:14:56.100Z,100401.88
2023-04-18T16:17:25.140Z,100406.28
2023-04-18T16:19:54.457Z,100409.78
2023-04-18T16:22:23.567Z,100403.22
2023-04-18T16:24:54.196Z,100408.44
2023-04-18T16:27:23.268Z,100399.00
2023-04-18T16:29:53.900Z,100415.66
2023-04-18T16:32:23.072Z,100415.13
2023-04-18T16:34:52.422Z,100404.91
2023-04-18T16:37:21.698Z,100414.03
2023-04-18T16:39:51.337Z,100416.84
2023-04-18T16:42:21.852Z,100416.06
2023-04-18T16:44:50.981Z,100425.19
2023-04-18T16:47:20.465Z,100424.63
2023-04-18T16:49:50.859Z,100424.22
2023-04-18T16:52:20.056Z,100431.47
2023-04-18T16:54:51.233Z,100429.22
2023-04-18T16:57:22.943Z,100428.16
2023-04-18T16:59:52.246Z,100429.44
2023-04-18T17:02:21.672Z,100430.53
2023-04-18T17:04:52.391Z,100431.66
2023-04-18T17:07:21.674Z,100432.94
2023-04-18T17:09:50.770Z,100430.66
2023-04-18T17:12:19.839Z,100424.06
2023-04-18T17:14:50.256Z,100430.06
2023-04-18T17:17:19.377Z,100435.41
2023-04-18T17:19:48.849Z,100430.84
2023-04-18T17:22:18.256Z,100431.47
2023-04-18T17:27:34.007Z,100433.66
2023-04-18T17:30:04.885Z,100439.16
2023-04-18T17:32:35.351Z,100435.66
2023-04-18T17:35:06.502Z,100437.31
2023-04-18T17:37:54.095Z,100431.97
2023-04-18T17:40:23.429Z,100438.09
2023-04-18T17:42:52.603Z,100438.25
2023-04-18T17:45:23.090Z,100439.28
2023-04-18T17:47:57.627Z,100438.50
2023-04-18T17:50:26.948Z,100441.59
2023-04-18T17:52:58.632Z,100438.16
2023-04-18T17:55:28.020Z,100434.94
2023-04-18T17:57:57.590Z,100445.13
2023-04-18T18:00:28.564Z,100443.25
2023-04-18T18:03:16.285Z,100443.25
2023-04-18T18:05:47.549Z,100441.13
2023-04-18T18:08:17.394Z,100439.78
2023-04-18T18:10:47.383Z,100443.31
2023-04-18T18:13:16.643Z,100440.84
2023-04-18T18:15:47.037Z,100442.69
2023-04-18T18:18:29.918Z,100441.63
2023-04-18T18:20:59.309Z,100438.09
2023-04-18T18:23:28.419Z,100445.00
2023-04-18T18:25:57.423Z,100439.50
2023-04-18T18:28:26.614Z,100445.19
2023-04-18T18:30:57.443Z,100449.81
2023-04-18T18:33:26.579Z,100447.97
2023-04-18T18:36:14.607Z,100442.78
2023-04-18T18:38:43.852Z,100442.44
2023-04-18T18:41:12.921Z,100445.50
2023-04-18T18:43:42.073Z,100442.78
2023-04-18T18:46:12.626Z,100440.50
2023-04-18T18:48:41.790Z,100433.91
2023-04-18T18:51:11.709Z,100439.59
2023-04-18T18:53:40.812Z,100435.78
2023-04-18T18:56:28.270Z,100436.75
2023-04-18T18:58:57.277Z,100433.69
2023-04-18T19:01:30.328Z,100436.78
2023-04-18T19:03:59.530Z,100436.34
2023-04-18T19:06:32.353Z,100433.88
2023-04-18T19:09:37.374Z,100433.09
2023-04-18T19:12:08.484Z,100434.94
2023-04-18T19:14:37.455Z,100433.16
2023-04-18T19:17:08.037Z,100428.25
2023-04-18T19:19:37.357Z,100433.19
2023-04-18T19:22:06.972Z,100429.50
2023-04-18T19:24:54.619Z,100433.47
2023-04-18T19:27:24.672Z,100438.69
2023-04-18T19:29:53.909Z,100426.44
2023-04-18T19:32:42.680Z,100432.13
2023-04-18T19:35:13.508Z,100433.19
2023-04-18T19:38:05.479Z,100437.78
2023-04-18T19:40:59.173Z,100436.56
2023-04-18T19:43:29.525Z,100432.00
2023-04-18T19:45:58.681Z,100435.19
2023-04-18T19:48:29.229Z,100438.72
2023-04-18T19:50:58.790Z,100434.28
2023-04-18T19:53:27.765Z,100440.28
2023-04-18T19:55:57.564Z,100431.38
2023-04-18T19:58:36.633Z,100435.06
2023-04-18T20:01:06.298Z,100433.97
2023-04-18T20:03:54.710Z,100434.16
2023-04-18T20:06:25.252Z,100426.16
2023-04-18T20:08:54.796Z,100432.91
2023-04-18T20:11:32.816Z,100431.97
2023-04-18T20:14:06.713Z,100443.78
2023-04-18T20:16:53.312Z,100444.22
2023-04-18T20:19:29.957Z,100443.03
2023-04-18T20:22:35.499Z,100448.84
2023-04-18T20:25:04.632Z,100453.09
2023-04-18T20:27:52.912Z,100458.56
2023-04-18T20:30:39.431Z,100453.38
2023-04-18T20:33:45.738Z,100457.94
2023-04-18T20:36:33.575Z,100454.88
2023-04-18T20:39:03.853Z,100462.56
2023-04-18T20:41:34.849Z,100466.53
2023-04-18T20:44:22.736Z,100459.38
2023-04-18T20:47:10.536Z,100456.47
2023-04-18T20:49:39.795Z,100466.09
2023-04-18T20:52:10.775Z,100468.69
2023-04-18T20:54:41.252Z,100466.88
2023-04-18T20:57:10.591Z,100470.81
2023-04-18T20:59:39.836Z,100470.66
2023-04-18T21:02:10.094Z,100466.53
2023-04-18T21:05:16.846Z,100469.13
2023-04-18T21:07:47.087Z,100473.09
2023-04-18T21:10:33.429Z,100472.63
2023-04-18T21:15:57.139Z,100472.19
2023-04-18T21:18:44.947Z,100480.56
2023-04-18T21:21:14.125Z,100475.50
2023-04-18T21:24:37.714Z,100480.72
2023-04-18T21:27:08.480Z,100484.25
2023-04-18T21:29:37.627Z,100481.81
2023-04-18T21:32:25.543Z,100475.03
2023-04-18T21:34:56.033Z,100474.91
2023-04-18T21:37:25.741Z,100478.28
2023-04-18T21:40:12.122Z,100479.00
2023-04-18T21:42:42.831Z,100485.13
2023-04-18T21:45:30.838Z,100477.19
2023-04-18T21:47:59.925Z,100481.91
2023-04-18T21:50:29.139Z,100485.44
2023-04-18T21:52:58.281Z,100477.75
2023-04-18T21:55:27.599Z,100487.84
2023-04-18T21:57:58.172Z,100484.19
2023-04-18T22:00:27.808Z,100483.41
2023-04-18T22:02:57.161Z,100484.19
2023-04-18T22:05:47.358Z,100485.22
2023-04-18T22:08:17.646Z,100481.72
2023-04-18T22:10:50.571Z,100481.72
2023-04-18T22:13:21.071Z,100482.34
2023-04-18T22:16:07.818Z,100488.72
2023-04-18T22:18:37.937Z,100492.88
2023-04-18T22:21:09.668Z,100482.16
2023-04-18T22:23:38.658Z,100487.03
2023-04-18T22:26:07.603Z,100489.16
2023-04-18T22:28:38.186Z,100485.19
2023-04-18T22:31:07.279Z,100491.91
2023-04-18T22:33:36.458Z,100494.81
2023-04-18T22:36:24.440Z,100488.38
2023-04-18T22:38:53.559Z,100485.63
2023-04-18T22:41:22.536Z,100485.31
2023-04-18T22:43:52.869Z,100496.03
2023-04-18T22:46:21.904Z,100484.09
2023-04-18T22:48:50.945Z,100490.06
2023-04-18T22:51:20.377Z,100487.47
2023-04-18T22:53:49.491Z,100489.75
2023-04-18T22:56:18.409Z,100490.22
2023-04-18T22:58:47.600Z,100485.97
2023-04-18T23:01:18.113Z,100496.34
2023-04-18T23:03:47.259Z,100484.09
2023-04-18T23:06:16.492Z,100487.78
2023-04-18T23:08:45.580Z,100487.13
2023-04-18T23:11:14.517Z,100486.69
2023-04-18T23:13:43.578Z,100482.28
2023-04-18T23:16:12.745Z,100487.78
2023-04-18T23:18:43.392Z,100478.31
2023-04-18T23:21:12.291Z,100480.00
2023-04-18T23:23:41.334Z,100482.59
2023-04-18T23:26:14.625Z,100484.88
2023-04-18T23:28:43.783Z,100489.47
2023-04-18T23:31:13.362Z,100489.63
2023-04-18T23:33:44.443Z,100477.72
2023-04-18T23:36:13.978Z,100483.50
2023-04-18T23:38:43.351Z,100484.09
2023-04-18T23:41:12.345Z,100483.47
2023-04-18T23:43:41.300Z,100477.97
2023-04-18T23:46:10.528Z,100478.72
2023-04-18T23:48:39.466Z,100476.88
2023-04-18T23:51:09.745Z,100477.63
2023-04-18T23:53:38.803Z,100476.72
2023-04-18T23:56:08.505Z,100477.63
2023-04-18T23:58:37.586Z,100479.16
